• Join FlightAware (Why Join?)
  • Login
  • US Flag 
07:04AM EDT


 

Airport Tracker/Info


-or-


 

Live Flight TrackerFlight Track Log ✈ N24SA ✈ 19-May-2014 ✈ KLCI - KFPR

Flight Track Log - Related Links

Times and Time Zones

All times are in EDT time to prevent confusion due to time zone crossing. See the N24SA flight status page for this flight to view local times or setup timezone preferences in your user account.

Time Position Orientation Groundspeed Altitude Reporting Facility
EDT Latitude Longitude Course Direction KTS MPH feet Rate Location/Type
11:54AM 43.5667 -71.4667 166° South 181 208 3,000  Level KA90
11:55AM 43.5333 -71.4833 200° South 218 251 4,900 1,440 Climbing KA90
11:56AM 43.4672 -71.4469 158° South 269 310 5,200 1,140 Climbing Boston Center
11:57AM 43.4078 -71.3925 146° Southeast 254 292 7,100 1,860 Climbing Boston Center
11:58AM 43.3367 -71.3583 161° South 250 288 9,100 1,740 Climbing Boston Center
11:59AM 43.2714 -71.3236 159° South 251 289 10,800 2,520 Climbing Boston Center
12:00PM 42.9284 -71.1817 166° South  Level FlightAware Approximate
12:00PM 43.2114 -71.2433 136° Southeast 299 344 14,200  Level Boston Center
12:01PM 43.1586 -71.1456 126° Southeast 323 372 16,400 2,580 Climbing Boston Center
12:02PM 43.1075 -71.0375 123° Southeast 353 406 19,600 2,520 Climbing Boston Center
12:03PM 43.0539 -70.9172 121° Southeast 369 425 21,600 2,220 Climbing Boston Center
12:04PM 42.9928 -70.7964 125° Southeast 386 444 24,200 2,220 Climbing Boston Center
12:05PM 42.8903 -70.7153 150° Southeast 392 451 26,300 1,860 Climbing Boston Center
12:06PM 42.7967 -70.7942 212° Southwest 396 456 28,100 780 Climbing Boston Center
12:07PM 42.7097 -70.8858 218° Southwest 399 459 28,000  Descending Boston Center
12:08PM 42.6164 -70.9767 216° Southwest 411 473 28,200  Climbing Boston Center
12:09PM 42.5236 -71.0625 214° Southwest 408 470 28,100 600 Descending Boston Center
12:11PM 42.3444 -71.2389 212° Southwest 398 458 30,100 1,380 Climbing Boston Center
12:12PM 42.2408 -71.3483 218° Southwest 410 472 32,500 1,860 Climbing Boston Center
12:13PM 42.1542 -71.4481 220° Southwest 410 472 33,900 1,320 Climbing Boston Center
12:14PM 42.0606 -71.5503 219° Southwest 422 486 35,300 1,080 Climbing Boston Center
12:15PM 41.9639 -71.6461 216° Southwest 426 490 36,200 840 Climbing Boston Center
12:16PM 41.8647 -71.7453 217° Southwest 436 502 37,100 960 Climbing Boston Center
12:18PM 41.6742 -71.9528 215° Southwest 438 504 39,200 840 Climbing Boston Center
12:19PM 41.5786 -72.0581 220° Southwest 438 504 39,800 840 Climbing Boston Center
12:20PM 41.4808 -72.1692 220° Southwest 436 502 40,900 780 Climbing Boston Center
12:21PM 41.3867 -72.2675 218° Southwest 433 498 41,500 720 Climbing Boston Center
12:22PM 41.2767 -72.3825 218° Southwest 420 483 42,500 480 Climbing Boston Center
12:24PM 41.0878 -72.5633 216° Southwest 421 484 43,000 120 Climbing Boston Center
12:25PM 40.9917 -72.6578 217° Southwest 425 489 43,000  Level Boston Center
12:26PM 40.8947 -72.7597 218° Southwest 437 503 43,100  Climbing Boston Center
12:28PM 40.7944 -72.8558 216° Southwest 441 507 43,100  Level Boston Center
12:29PM 40.6919 -72.9533 216° Southwest 448 516 43,100 -60 Level Boston Center
12:30PM 40.5903 -73.0519 216° Southwest 452 520 43,000 -60 Descending Boston Center
12:31PM 40.4922 -73.1467 216° Southwest 445 512 43,000  Level Boston Center
12:32PM 40.3786 -73.2583 217° Southwest 429 494 43,000 60 Level Boston Center
12:33PM 40.2853 -73.3483 216° Southwest 423 487 43,200  Climbing Boston Center
12:34PM 40.1964 -73.4375 217° Southwest 409 471 43,000 -180 Descending Boston Center
12:35PM 40.1003 -73.5311 217° Southwest 404 465 42,900 -120 Descending Boston Center
12:36PM 40.0122 -73.6144 216° Southwest 394 453 42,800  Descending Boston Center
12:37PM 39.9317 -73.6944 217° Southwest 393 452 42,900  Climbing Boston Center
12:38PM 39.7833 -73.8264 214° Southwest 409 471 42,900  Level Washington Center
12:39PM 39.6906 -73.9200 218° Southwest 419 482 43,000 180 Climbing Washington Center
12:40PM 39.6317 -73.9775 217° Southwest 425 489 43,200  Climbing Boston Center
12:41PM 39.4958 -74.1097 217° Southwest 437 503 43,000 -60 Descending Washington Center
12:42PM 39.3981 -74.2125 219° Southwest 445 512 43,100 -120 Climbing Washington Center
12:43PM 39.2928 -74.3036 214° Southwest 451 519 42,800 -60 Descending Washington Center
12:44PM 39.1867 -74.3919 213° Southwest 453 521 43,000 60 Climbing Washington Center
12:48PM 38.8522 -74.6914 215° Southwest 454 522 43,100  Climbing Washington Center
12:49PM 38.7517 -74.7864 216° Southwest 450 518 43,000  Descending Washington Center
12:50PM 38.6483 -74.8778 215° Southwest 450 518 43,100  Climbing Washington Center
12:54PM 38.2200 -75.2575 214° Southwest 446 513 43,000  Descending Washington Center
12:55PM 38.1206 -75.3450 215° Southwest 440 506 43,100  Climbing Washington Center
12:56PM 38.0000 -75.4444 213° Southwest 435 501 43,000 -180 Descending Washington Center
12:58PM 37.8022 -75.6075 213° Southwest 425 489 42,700 -180 Descending Washington Center
12:59PM 37.8191 -75.5627 214° Southwest  Level FlightAware Approximate
12:59PM 37.6972 -75.6969 214° Southwest 423 487 42,600  Level Washington Center
01:00PM 37.6122 -75.7692 214° Southwest 423 487 43,000 180 Climbing Washington Center
01:01PM 37.5403 -75.9528 244° Southwest 584 672 43,000  Level Washington Center
01:08PM 36.8894 -76.3361 213° Southwest 188 216 43,000  Level Washington Center
01:09PM 36.6294 -76.3814 188° South 429 494 43,000  Level Washington Center
01:10PM 36.5042 -76.4678 209° Southwest 383 441 43,000  Level Washington Center
01:11PM 36.6906 -76.4956 213° Southwest  Level FlightAware Approximate
01:11PM 36.3781 -76.5739 214° Southwest 477 549 43,000  Level Washington Center
01:12PM 36.5968 -76.5716 213° Southwest  Level FlightAware Approximate
01:12PM 36.2736 -76.6678 216° Southwest 465 535 43,000  Level Washington Center
01:13PM 36.5031 -76.6474 213° Southwest  Level FlightAware Approximate
01:13PM 36.1731 -76.7533 214° Southwest 454 522 43,000  Level Washington Center
01:14PM 36.0736 -76.8444 217° Southwest 449 517 43,000  Level Washington Center
01:15PM 35.9758 -76.9247 214° Southwest 445 512 43,000  Level Washington Center
01:16PM 35.8731 -77.0058 213° Southwest 442 509 43,000  Level Washington Center
01:17PM 35.7539 -77.1164 217° Southwest 436 502 43,000  Level Washington Center
01:18PM 35.6619 -77.2028 217° Southwest 434 499 43,000  Level Washington Center
01:19PM 35.5633 -77.2964 218° Southwest 434 499 43,000  Level Washington Center
01:20PM 35.4694 -77.3861 218° Southwest 433 498 43,000  Level Washington Center
01:21PM 35.3733 -77.4772 218° Southwest 432 497 43,000  Level Washington Center
01:23PM 35.2811 -77.5694 219° Southwest 432 497 43,000  Level Washington Center
01:24PM 35.1806 -77.6806 222° Southwest 432 497 43,000  Level Washington Center
01:25PM 35.0903 -77.7878 224° Southwest 427 491 43,000  Level Washington Center
01:28PM 34.8444 -78.0783 224° Southwest 428 493 43,000  Level Washington Center
01:29PM 34.7506 -78.1908 225° Southwest 422 486 43,000  Level Washington Center
01:31PM 34.5433 -78.4111 221° Southwest 440 506 43,000  Level Jacksonville Center
01:33PM 34.3592 -78.5686 215° Southwest 427 491 43,000  Level Washington Center
01:34PM 34.2644 -78.6742 223° Southwest 435 501 43,000  Level Jacksonville Center
01:35PM 34.1694 -78.7667 219° Southwest 450 518 43,000  Level Jacksonville Center
01:36PM 34.0808 -78.8611 221° Southwest 433 498 43,000  Level Jacksonville Center
01:37PM 33.9900 -78.9553 221° Southwest 445 512 43,000  Level Jacksonville Center
01:38PM 33.9031 -79.0494 222° Southwest 444 511 43,000  Level Jacksonville Center
01:39PM 33.8203 -79.1431 223° Southwest 438 504 43,000  Level Jacksonville Center
01:40PM 33.7231 -79.2369 219° Southwest 438 504 43,000  Level Jacksonville Center
01:42PM 33.5467 -79.4186 221° Southwest 438 504 43,000  Level Jacksonville Center
01:43PM 33.4592 -79.5067 220° Southwest 432 497 43,000  Level Jacksonville Center
01:44PM 33.3656 -79.5972 219° Southwest 432 497 43,000  Level Jacksonville Center
01:45PM 33.2700 -79.6903 219° Southwest 432 497 43,000  Level Jacksonville Center
01:46PM 33.1803 -79.7781 219° Southwest 431 496 43,000  Level Jacksonville Center
01:47PM 33.1011 -79.8650 223° Southwest 423 487 43,000  Level Jacksonville Center
01:48PM 32.9944 -79.9528 215° Southwest 437 503 43,000  Level Jacksonville Center
01:49PM 32.9067 -80.0372 219° Southwest 436 502 43,000  Level Jacksonville Center
01:50PM 32.8083 -80.1144 213° Southwest 442 509 43,000  Level Jacksonville Center
01:52PM 32.6047 -80.2639 208° Southwest 428 493 43,000  Level Jacksonville Center
01:53PM 32.5144 -80.3378 215° Southwest 421 484 43,000  Level Jacksonville Center
01:55PM 32.3086 -80.4861 211° Southwest 421 484 43,000  Level Jacksonville Center
01:57PM 32.1111 -80.6433 214° Southwest 421 484 43,000  Level Jacksonville Center
01:58PM 31.9953 -80.7075 205° Southwest 425 489 43,000  Level Jacksonville Center
01:59PM 31.9003 -80.7661 208° Southwest 425 489 43,000  Level Jacksonville Center
02:01PM 31.7139 -80.7487 175° South  Level Estimated
02:01PM 31.6750 -80.9103 175° South 427 491 43,000  Level Jacksonville Center
02:02PM 31.5694 -80.9761 208° Southwest 426 490 43,000  Level Jacksonville Center
02:03PM 31.4642 -81.0414 208° Southwest 431 496 43,000  Level Jacksonville Center
02:04PM 31.3753 -81.1067 212° Southwest 418 481 43,000  Level Jacksonville Center
02:09PM 30.7242 -81.1308 177° South 452 520 43,000 -360 Level Jacksonville Center
02:10PM 30.5986 -81.1236 177° South 459 528 41,000 -1,020 Descending Jacksonville Center
02:11PM 30.4714 -81.1211 179° South 450 518 41,000  Level Jacksonville Center
02:12PM 30.3378 -81.1189 179° South 466 536 41,000 -3,000 Level Jacksonville Center
02:13PM 30.4119 -81.1421 177° South  Level FlightAware Approximate
02:13PM 30.2292 -81.1136 178° South 458 527 35,000  Level Jacksonville Center
02:14PM 30.2987 -81.1356 177° South  Level FlightAware Approximate
02:14PM 30.0997 -81.1136 180° South 445 512 35,000  Level Jacksonville Center
02:15PM 29.9931 -81.1036 175° South 418 481 34,000 -300 Descending Jacksonville Center
02:18PM 29.5942 -81.0917 180° South 476 548 34,000  Level Jacksonville Center
02:19PM 29.4500 -81.0897 179° South 482 555 34,000  Level Jacksonville Center
02:20PM 29.3183 -81.0850 178° South 470 541 34,000  Level Jacksonville Center
02:21PM 29.1969 -81.0492 166° South 463 533 34,000  Level Jacksonville Center
02:22PM 29.0792 -80.9989 160° South 438 504 34,000 -3,600 Level Jacksonville Center
02:24PM 28.8789 -80.9036 157° South 432 497 24,000 -4,260 Descending Miami Center
02:25PM 28.7728 -80.8667 163° South 413 475 22,000 -960 Descending Miami Center
02:26PM 28.6600 -80.8314 165° South 415 478 22,000 -1,020 Level Miami Center
02:28PM 28.4414 -80.7447 161° South 378 435 19,000 -1,620 Descending Miami Center
02:29PM 28.3583 -80.7094 160° South 372 428 17,000 -1,980 Descending Miami Center
02:30PM 28.2308 -80.6919 173° South 602 693 15,000 -1,080 Descending Miami Center
02:33PM 27.9614 -80.6583 164° South 346 398 12,600 -600 Descending Miami Center
02:34PM 27.8714 -80.6617 182° South 309 356 12,600 -1,020 Level Miami Center
02:35PM 27.7883 -80.6642 182° South 286 329 10,500 -1,800 Descending Miami Center
02:36PM 27.7106 -80.6672 182° South 287 330 9,000 -1,320 Descending Miami Center
02:38PM 27.5461 -80.6775 149° Southeast 274 315 6,500 -840 Descending Miami Center
02:39PM 27.4994 -80.6378 143° Southeast 230 265 6,500  Level Miami Center